KLM525 LOWW-BIKF
Flight info
| Callsign | KLM525 |
|---|---|
| Flight time | 3h 54m |
| Altitude | 32000 |
| Route | LANUX2C/29 LANUX DCT VLM DCT HDO DCT IPSUB DCT VAXIT/N0449F340 DCT ARTEX DCT LAMRO DCT DEVBI DCT RATSU/M077F340 DCT ALDAN DCT ASRUN ASRUN3K |
| Aircraft | A21N/M-SDE3FGHIRWY/LB1 |
Departure
| Time | 2026-04-25 17:33 |
|---|---|
| Airport | Vienna International Airport (LOWW) |
Arrival
| Time | 2026-04-25 21:27 |
|---|---|
| Airport | Keflavik International Airport (BIKF) |
| Time | Latitude | Longitude | Altitude | Speed | Heading |
|---|---|---|---|---|---|
| 2026-04-25 17:02 | 48.11851 | 16.56001 | 610 ft | 0 kts | 124° |
| 2026-04-25 17:23 | 48.11853 | 16.55996 | 609 ft | 3 kts | 124° |
| 2026-04-25 17:24 | 48.11868 | 16.55964 | 621 ft | 4 kts | 127° |
| 2026-04-25 17:24 | 48.11885 | 16.55933 | 623 ft | 4 kts | 138° |
| 2026-04-25 17:24 | 48.11897 | 16.55918 | 623 ft | 4 kts | 159° |
| 2026-04-25 17:24 | 48.11911 | 16.55913 | 620 ft | 3 kts | 200° |
| 2026-04-25 17:25 | 48.11914 | 16.55915 | 621 ft | 0 kts | 206° |
| 2026-04-25 17:27 | 48.11913 | 16.55914 | 621 ft | 2 kts | 206° |
| 2026-04-25 17:27 | 48.11891 | 16.55898 | 618 ft | 4 kts | 205° |
| 2026-04-25 17:27 | 48.11881 | 16.55891 | 621 ft | 5 kts | 205° |
| 2026-04-25 17:28 | 48.11822 | 16.55850 | 616 ft | 6 kts | 205° |
| 2026-04-25 17:28 | 48.11777 | 16.55819 | 611 ft | 8 kts | 204° |
| 2026-04-25 17:28 | 48.11725 | 16.55788 | 609 ft | 8 kts | 190° |
| 2026-04-25 17:28 | 48.11679 | 16.55831 | 615 ft | 8 kts | 122° |
| 2026-04-25 17:29 | 48.11651 | 16.55919 | 615 ft | 11 kts | 115° |
| 2026-04-25 17:29 | 48.11614 | 16.56041 | 617 ft | 14 kts | 113° |
| 2026-04-25 17:29 | 48.11571 | 16.56190 | 614 ft | 17 kts | 118° |
| 2026-04-25 17:29 | 48.11509 | 16.56362 | 617 ft | 20 kts | 118° |
| 2026-04-25 17:30 | 48.11439 | 16.56563 | 620 ft | 23 kts | 117° |
| 2026-04-25 17:30 | 48.11363 | 16.56797 | 619 ft | 27 kts | 117° |
| 2026-04-25 17:30 | 48.11279 | 16.57060 | 617 ft | 29 kts | 115° |
| 2026-04-25 17:30 | 48.11187 | 16.57348 | 611 ft | 32 kts | 116° |
| 2026-04-25 17:31 | 48.11089 | 16.57639 | 619 ft | 23 kts | 116° |
| 2026-04-25 17:31 | 48.11027 | 16.57632 | 612 ft | 11 kts | 203° |
| 2026-04-25 17:31 | 48.10941 | 16.57572 | 619 ft | 16 kts | 214° |
| 2026-04-25 17:31 | 48.10951 | 16.57414 | 611 ft | 20 kts | 295° |
| 2026-04-25 17:32 | 48.11081 | 16.57016 | 616 ft | 73 kts | 295° |
| 2026-04-25 17:32 | 48.11386 | 16.56066 | 617 ft | 127 kts | 296° |
| 2026-04-25 17:32 | 48.11828 | 16.54677 | 621 ft | 167 kts | 296° |
| 2026-04-25 17:32 | 48.12379 | 16.53035 | 900 ft | 177 kts | 291° |
| 2026-04-25 17:33 | 48.12563 | 16.51323 | 1670 ft | 165 kts | 268° |
| 2026-04-25 17:33 | 48.12364 | 16.49637 | 2281 ft | 166 kts | 260° |
| 2026-04-25 17:33 | 48.12068 | 16.47885 | 2584 ft | 182 kts | 259° |
| 2026-04-25 17:33 | 48.11943 | 16.45930 | 2706 ft | 197 kts | 271° |
| 2026-04-25 17:34 | 48.11917 | 16.43797 | 2833 ft | 213 kts | 275° |
| 2026-04-25 17:34 | 48.12073 | 16.41484 | 2967 ft | 236 kts | 280° |
| 2026-04-25 17:34 | 48.12342 | 16.38980 | 3399 ft | 247 kts | 281° |
| 2026-04-25 17:34 | 48.12640 | 16.36416 | 3987 ft | 252 kts | 282° |
| 2026-04-25 17:35 | 48.12936 | 16.33845 | 4628 ft | 255 kts | 282° |
| 2026-04-25 17:35 | 48.13235 | 16.31179 | 5319 ft | 258 kts | 281° |
| 2026-04-25 17:35 | 48.13524 | 16.28523 | 5968 ft | 260 kts | 281° |
| 2026-04-25 17:35 | 48.13812 | 16.25833 | 6601 ft | 262 kts | 281° |
| 2026-04-25 17:36 | 48.14204 | 16.23208 | 7201 ft | 262 kts | 292° |
| 2026-04-25 17:36 | 48.15120 | 16.20852 | 7758 ft | 264 kts | 311° |
| 2026-04-25 17:36 | 48.16513 | 16.19068 | 8364 ft | 266 kts | 329° |
| 2026-04-25 17:36 | 48.18173 | 16.17810 | 8979 ft | 268 kts | 332° |
| 2026-04-25 17:37 | 48.19860 | 16.16571 | 9591 ft | 271 kts | 332° |
| 2026-04-25 17:37 | 48.21559 | 16.15320 | 10143 ft | 273 kts | 332° |
| 2026-04-25 17:37 | 48.23317 | 16.14023 | 10319 ft | 291 kts | 332° |
| 2026-04-25 17:37 | 48.25188 | 16.12639 | 10455 ft | 308 kts | 332° |
| 2026-04-25 17:38 | 48.27161 | 16.11179 | 10569 ft | 325 kts | 332° |
| 2026-04-25 17:38 | 48.27854 | 16.10664 | 10631 ft | 331 kts | 332° |
| 2026-04-25 17:38 | 48.31339 | 16.08070 | 11338 ft | 340 kts | 332° |
| 2026-04-25 17:38 | 48.33469 | 16.06489 | 11873 ft | 343 kts | 332° |
| 2026-04-25 17:39 | 48.35615 | 16.04895 | 12405 ft | 346 kts | 332° |
| 2026-04-25 17:39 | 48.37778 | 16.03285 | 12940 ft | 348 kts | 332° |
| 2026-04-25 17:39 | 48.39963 | 16.01655 | 13479 ft | 351 kts | 332° |
| 2026-04-25 17:39 | 48.42158 | 16.00016 | 13988 ft | 354 kts | 331° |
| 2026-04-25 17:40 | 48.44372 | 15.98360 | 14471 ft | 356 kts | 331° |
| 2026-04-25 17:40 | 48.46597 | 15.96697 | 14949 ft | 358 kts | 331° |
| 2026-04-25 17:40 | 48.48837 | 15.95021 | 15415 ft | 361 kts | 331° |
| 2026-04-25 17:40 | 48.51093 | 15.93332 | 15862 ft | 363 kts | 331° |
| 2026-04-25 17:41 | 48.53369 | 15.91622 | 16327 ft | 365 kts | 331° |
| 2026-04-25 17:41 | 48.54878 | 15.90488 | 16627 ft | 367 kts | 331° |
| 2026-04-25 17:41 | 48.57168 | 15.88763 | 17073 ft | 369 kts | 331° |
| 2026-04-25 17:41 | 48.60206 | 15.86308 | 17660 ft | 371 kts | 329° |
| 2026-04-25 17:42 | 48.61700 | 15.85035 | 17945 ft | 373 kts | 328° |
| 2026-04-25 17:42 | 48.63950 | 15.83076 | 18346 ft | 375 kts | 328° |
| 2026-04-25 17:42 | 48.66213 | 15.81091 | 18728 ft | 377 kts | 328° |
| 2026-04-25 17:42 | 48.69233 | 15.78458 | 19222 ft | 379 kts | 328° |
| 2026-04-25 17:43 | 48.70781 | 15.77114 | 19471 ft | 380 kts | 328° |
| 2026-04-25 17:43 | 48.73083 | 15.75122 | 19844 ft | 382 kts | 328° |
| 2026-04-25 17:43 | 48.75396 | 15.73129 | 20217 ft | 383 kts | 328° |
| 2026-04-25 17:43 | 48.77719 | 15.71129 | 20586 ft | 385 kts | 328° |
| 2026-04-25 17:44 | 48.80056 | 15.69118 | 20952 ft | 387 kts | 328° |
| 2026-04-25 17:44 | 48.82400 | 15.67101 | 21313 ft | 388 kts | 328° |
| 2026-04-25 17:44 | 48.84758 | 15.65069 | 21682 ft | 390 kts | 327° |
| 2026-04-25 17:44 | 48.87126 | 15.63025 | 22057 ft | 392 kts | 327° |
| 2026-04-25 17:45 | 48.89510 | 15.61100 | 22391 ft | 395 kts | 333° |
| 2026-04-25 17:45 | 48.91216 | 15.59976 | 22621 ft | 397 kts | 333° |
| 2026-04-25 17:45 | 48.94582 | 15.57761 | 23104 ft | 399 kts | 333° |
| 2026-04-25 17:45 | 48.97140 | 15.56073 | 23448 ft | 401 kts | 333° |
| 2026-04-25 17:46 | 48.99699 | 15.54375 | 23753 ft | 402 kts | 333° |
| 2026-04-25 17:46 | 49.02264 | 15.52666 | 24036 ft | 404 kts | 333° |
| 2026-04-25 17:46 | 49.04838 | 15.50949 | 24315 ft | 405 kts | 333° |
| 2026-04-25 17:46 | 49.07432 | 15.49224 | 24598 ft | 407 kts | 333° |
| 2026-04-25 17:47 | 49.10028 | 15.47501 | 24861 ft | 408 kts | 333° |
| 2026-04-25 17:47 | 49.12640 | 15.45766 | 25128 ft | 410 kts | 333° |
| 2026-04-25 17:47 | 49.15258 | 15.44023 | 25400 ft | 411 kts | 333° |
| 2026-04-25 17:47 | 49.17885 | 15.42270 | 25666 ft | 413 kts | 333° |
| 2026-04-25 17:48 | 49.23171 | 15.38725 | 26182 ft | 416 kts | 333° |
| 2026-04-25 17:48 | 49.25825 | 15.36936 | 26437 ft | 418 kts | 333° |
| 2026-04-25 17:48 | 49.28489 | 15.35138 | 26701 ft | 419 kts | 333° |
| 2026-04-25 17:49 | 49.31163 | 15.33336 | 26952 ft | 420 kts | 334° |
| 2026-04-25 17:49 | 49.33849 | 15.31528 | 27185 ft | 422 kts | 334° |
| 2026-04-25 17:49 | 49.36540 | 15.29718 | 27443 ft | 423 kts | 334° |
| 2026-04-25 17:49 | 49.39245 | 15.27897 | 27682 ft | 425 kts | 334° |
| 2026-04-25 17:50 | 49.41954 | 15.26065 | 27913 ft | 426 kts | 334° |
| 2026-04-25 17:50 | 49.44667 | 15.24221 | 28152 ft | 427 kts | 334° |
| 2026-04-25 17:50 | 49.47387 | 15.22373 | 28391 ft | 428 kts | 334° |
| 2026-04-25 17:50 | 49.50119 | 15.20522 | 28626 ft | 430 kts | 334° |
| 2026-04-25 17:51 | 49.52860 | 15.18663 | 28914 ft | 430 kts | 334° |
| 2026-04-25 17:51 | 49.55556 | 15.16835 | 29259 ft | 428 kts | 334° |
| 2026-04-25 17:51 | 49.58275 | 15.14988 | 29623 ft | 426 kts | 334° |
| 2026-04-25 17:51 | 49.60984 | 15.13142 | 29962 ft | 425 kts | 334° |
| 2026-04-25 17:52 | 49.63687 | 15.11295 | 30239 ft | 424 kts | 333° |
| 2026-04-25 17:52 | 49.65509 | 15.10048 | 30432 ft | 423 kts | 333° |
| 2026-04-25 17:52 | 49.69069 | 15.07609 | 30807 ft | 421 kts | 333° |
| 2026-04-25 17:52 | 49.71756 | 15.05814 | 31090 ft | 421 kts | 335° |
| 2026-04-25 17:53 | 49.74486 | 15.04178 | 31375 ft | 420 kts | 337° |
| 2026-04-25 17:53 | 49.77236 | 15.02664 | 31655 ft | 419 kts | 338° |
| 2026-04-25 17:53 | 49.79992 | 15.01212 | 31920 ft | 418 kts | 338° |
| 2026-04-25 17:54 | 49.85464 | 14.98316 | 32004 ft | 412 kts | 337° |
| 2026-04-25 17:54 | 49.90858 | 14.95340 | 32008 ft | 410 kts | 336° |
| 2026-04-25 17:55 | 49.96215 | 14.92313 | 32001 ft | 409 kts | 336° |
| 2026-04-25 17:55 | 50.01534 | 14.89300 | 32005 ft | 409 kts | 336° |
| 2026-04-25 17:56 | 50.06885 | 14.86278 | 32003 ft | 408 kts | 336° |
| 2026-04-25 17:56 | 50.12225 | 14.83261 | 32013 ft | 408 kts | 336° |
| 2026-04-25 17:57 | 50.17554 | 14.80244 | 32010 ft | 407 kts | 336° |
| 2026-04-25 17:57 | 50.22877 | 14.77230 | 32013 ft | 407 kts | 336° |
| 2026-04-25 17:58 | 50.28197 | 14.74209 | 32013 ft | 406 kts | 336° |
| 2026-04-25 17:58 | 50.33507 | 14.71188 | 32009 ft | 406 kts | 336° |
| 2026-04-25 17:59 | 50.38812 | 14.68150 | 32012 ft | 405 kts | 336° |
| 2026-04-25 17:59 | 50.44109 | 14.65115 | 32017 ft | 405 kts | 336° |
| 2026-04-25 18:00 | 50.49372 | 14.62095 | 32013 ft | 405 kts | 336° |
| 2026-04-25 18:00 | 50.54656 | 14.59055 | 32015 ft | 404 kts | 336° |
| 2026-04-25 18:01 | 50.59935 | 14.56015 | 32018 ft | 404 kts | 336° |
| 2026-04-25 18:01 | 50.65206 | 14.52976 | 32018 ft | 403 kts | 336° |
| 2026-04-25 18:02 | 50.70471 | 14.49923 | 32010 ft | 403 kts | 336° |
| 2026-04-25 18:02 | 50.75730 | 14.46871 | 32012 ft | 402 kts | 336° |
| 2026-04-25 18:03 | 50.80983 | 14.43804 | 32009 ft | 402 kts | 336° |
| 2026-04-25 18:03 | 50.86226 | 14.40739 | 32003 ft | 402 kts | 336° |
| 2026-04-25 18:04 | 50.91438 | 14.37561 | 32000 ft | 399 kts | 330° |
| 2026-04-25 18:04 | 50.95947 | 14.32580 | 31999 ft | 394 kts | 317° |
| 2026-04-25 18:05 | 51.00054 | 14.26881 | 31993 ft | 395 kts | 317° |
| 2026-04-25 18:05 | 51.04194 | 14.21145 | 31992 ft | 395 kts | 317° |
| 2026-04-25 18:06 | 51.08331 | 14.15404 | 31994 ft | 395 kts | 317° |
| 2026-04-25 18:06 | 51.12469 | 14.09658 | 31996 ft | 395 kts | 317° |
| 2026-04-25 18:07 | 51.16595 | 14.03897 | 31996 ft | 394 kts | 317° |
| 2026-04-25 18:07 | 51.20717 | 13.98123 | 32000 ft | 394 kts | 317° |
| 2026-04-25 18:08 | 51.24825 | 13.92348 | 32000 ft | 394 kts | 317° |
| 2026-04-25 18:08 | 51.28938 | 13.86574 | 32003 ft | 393 kts | 317° |
| 2026-04-25 18:09 | 51.33048 | 13.80787 | 32007 ft | 393 kts | 317° |
| 2026-04-25 18:09 | 51.37138 | 13.75005 | 32009 ft | 392 kts | 317° |
| 2026-04-25 18:10 | 51.41193 | 13.69252 | 32009 ft | 392 kts | 317° |
| 2026-04-25 18:10 | 51.45269 | 13.63465 | 32008 ft | 391 kts | 317° |
| 2026-04-25 18:11 | 51.49341 | 13.57668 | 32010 ft | 391 kts | 317° |
| 2026-04-25 18:11 | 51.53404 | 13.51864 | 32009 ft | 390 kts | 317° |
| 2026-04-25 18:12 | 51.57458 | 13.46071 | 32007 ft | 390 kts | 317° |
| 2026-04-25 18:12 | 51.61501 | 13.40267 | 32009 ft | 389 kts | 317° |
| 2026-04-25 18:13 | 51.65537 | 13.34463 | 32009 ft | 389 kts | 317° |
| 2026-04-25 18:13 | 51.69572 | 13.28647 | 32010 ft | 388 kts | 317° |
| 2026-04-25 18:14 | 51.75602 | 13.19931 | 32011 ft | 387 kts | 317° |
| 2026-04-25 18:14 | 51.79606 | 13.14117 | 32015 ft | 387 kts | 317° |
| 2026-04-25 18:15 | 51.83605 | 13.08308 | 32013 ft | 386 kts | 317° |
| 2026-04-25 18:15 | 51.87588 | 13.02495 | 32015 ft | 385 kts | 317° |
| 2026-04-25 18:16 | 51.91541 | 12.96706 | 32012 ft | 385 kts | 317° |
| 2026-04-25 18:17 | 51.97492 | 12.87985 | 32016 ft | 384 kts | 317° |
| 2026-04-25 18:17 | 52.01451 | 12.82167 | 32018 ft | 384 kts | 317° |
| 2026-04-25 18:18 | 52.05398 | 12.76345 | 32022 ft | 383 kts | 316° |
| 2026-04-25 18:18 | 52.09341 | 12.70513 | 32027 ft | 382 kts | 316° |
| 2026-04-25 18:19 | 52.13269 | 12.64693 | 32027 ft | 382 kts | 316° |
| 2026-04-25 18:19 | 52.17194 | 12.58866 | 32035 ft | 381 kts | 316° |
| 2026-04-25 18:20 | 52.20444 | 12.54034 | 32031 ft | 380 kts | 316° |
| 2026-04-25 18:20 | 52.25007 | 12.47223 | 32030 ft | 380 kts | 316° |
| 2026-04-25 18:21 | 52.28901 | 12.41386 | 32033 ft | 379 kts | 316° |
| 2026-04-25 18:21 | 52.32767 | 12.35595 | 32028 ft | 379 kts | 316° |
| 2026-04-25 18:22 | 52.36654 | 12.29756 | 32031 ft | 379 kts | 316° |
| 2026-04-25 18:22 | 52.40532 | 12.23914 | 32030 ft | 378 kts | 316° |
| 2026-04-25 18:23 | 52.44396 | 12.18074 | 32038 ft | 378 kts | 316° |
| 2026-04-25 18:23 | 52.48255 | 12.12227 | 32041 ft | 377 kts | 316° |
| 2026-04-25 18:24 | 52.52104 | 12.06371 | 32046 ft | 377 kts | 316° |
| 2026-04-25 18:24 | 52.55945 | 12.00514 | 32045 ft | 376 kts | 316° |
| 2026-04-25 18:25 | 52.59786 | 11.94664 | 32047 ft | 376 kts | 316° |
| 2026-04-25 18:25 | 52.63591 | 11.88846 | 32052 ft | 375 kts | 316° |
| 2026-04-25 18:26 | 52.67406 | 11.82983 | 32053 ft | 375 kts | 316° |
| 2026-04-25 18:26 | 52.71219 | 11.77121 | 32053 ft | 374 kts | 316° |
| 2026-04-25 18:27 | 52.75023 | 11.71248 | 32055 ft | 374 kts | 316° |
| 2026-04-25 18:27 | 52.78180 | 11.66365 | 32055 ft | 374 kts | 316° |
| 2026-04-25 18:28 | 52.81973 | 11.60483 | 32051 ft | 373 kts | 316° |
| 2026-04-25 18:28 | 52.85756 | 11.54605 | 32057 ft | 373 kts | 316° |
| 2026-04-25 18:29 | 52.91432 | 11.45786 | 32054 ft | 373 kts | 316° |
| 2026-04-25 18:30 | 52.98957 | 11.33982 | 32062 ft | 372 kts | 316° |
| 2026-04-25 18:30 | 53.02720 | 11.28073 | 32055 ft | 372 kts | 316° |
| 2026-04-25 18:31 | 53.06450 | 11.22214 | 32050 ft | 371 kts | 316° |
| 2026-04-25 18:31 | 53.10199 | 11.16304 | 32054 ft | 371 kts | 316° |
| 2026-04-25 18:32 | 53.13941 | 11.10373 | 32055 ft | 371 kts | 316° |
| 2026-04-25 18:32 | 53.17677 | 11.04440 | 32055 ft | 371 kts | 316° |
| 2026-04-25 18:33 | 53.21412 | 10.98503 | 32052 ft | 371 kts | 316° |
| 2026-04-25 18:33 | 53.25143 | 10.92561 | 32047 ft | 370 kts | 316° |
| 2026-04-25 18:34 | 53.28866 | 10.86605 | 32047 ft | 370 kts | 316° |
| 2026-04-25 18:34 | 53.32580 | 10.80647 | 32053 ft | 370 kts | 316° |
| 2026-04-25 18:35 | 53.36288 | 10.74676 | 32047 ft | 370 kts | 316° |
| 2026-04-25 18:35 | 53.40002 | 10.68706 | 32054 ft | 370 kts | 316° |
| 2026-04-25 18:36 | 53.43713 | 10.62723 | 32055 ft | 370 kts | 316° |
| 2026-04-25 18:36 | 53.47383 | 10.56757 | 32051 ft | 370 kts | 316° |
| 2026-04-25 18:37 | 53.51078 | 10.50752 | 32052 ft | 370 kts | 316° |
| 2026-04-25 18:37 | 53.54782 | 10.44729 | 32057 ft | 370 kts | 316° |
| 2026-04-25 18:38 | 53.58500 | 10.38663 | 32079 ft | 377 kts | 316° |
| 2026-04-25 18:38 | 53.62306 | 10.32431 | 32079 ft | 384 kts | 316° |
| 2026-04-25 18:39 | 53.66143 | 10.26149 | 32078 ft | 385 kts | 316° |
| 2026-04-25 18:39 | 53.69980 | 10.19849 | 32089 ft | 385 kts | 316° |
| 2026-04-25 18:40 | 53.73806 | 10.13531 | 32090 ft | 385 kts | 316° |
| 2026-04-25 18:40 | 53.77628 | 10.07199 | 32088 ft | 384 kts | 316° |
| 2026-04-25 18:41 | 53.81447 | 10.00870 | 32081 ft | 384 kts | 316° |
| 2026-04-25 18:41 | 53.85262 | 9.94536 | 32091 ft | 384 kts | 316° |
| 2026-04-25 18:42 | 53.88422 | 9.89264 | 32085 ft | 384 kts | 316° |
| 2026-04-25 18:42 | 53.92865 | 9.81852 | 32075 ft | 383 kts | 316° |
| 2026-04-25 18:43 | 53.96668 | 9.75472 | 32292 ft | 384 kts | 316° |
| 2026-04-25 18:43 | 53.98568 | 9.72278 | 32549 ft | 384 kts | 316° |
| 2026-04-25 18:43 | 54.00440 | 9.69130 | 32789 ft | 383 kts | 316° |
| 2026-04-25 18:44 | 54.02337 | 9.65940 | 33017 ft | 383 kts | 316° |
| 2026-04-25 18:44 | 54.04226 | 9.62754 | 33253 ft | 383 kts | 316° |
| 2026-04-25 18:44 | 54.06113 | 9.59561 | 33486 ft | 382 kts | 316° |
| 2026-04-25 18:44 | 54.08001 | 9.56361 | 33709 ft | 382 kts | 317° |
| 2026-04-25 18:45 | 54.09879 | 9.53173 | 33946 ft | 381 kts | 317° |
| 2026-04-25 18:45 | 54.11764 | 9.49978 | 34062 ft | 382 kts | 317° |
| 2026-04-25 18:45 | 54.15529 | 9.43599 | 34079 ft | 381 kts | 317° |
| 2026-04-25 18:46 | 54.19283 | 9.37199 | 34082 ft | 381 kts | 317° |
| 2026-04-25 18:46 | 54.23036 | 9.30774 | 34085 ft | 382 kts | 317° |
| 2026-04-25 18:47 | 54.26789 | 9.24350 | 34088 ft | 382 kts | 317° |
| 2026-04-25 18:47 | 54.30524 | 9.17955 | 34088 ft | 382 kts | 317° |
| 2026-04-25 18:48 | 54.34275 | 9.11479 | 34086 ft | 382 kts | 317° |
| 2026-04-25 18:48 | 54.38023 | 9.05002 | 34090 ft | 382 kts | 317° |
| 2026-04-25 18:49 | 54.41774 | 8.98513 | 34088 ft | 383 kts | 317° |
| 2026-04-25 18:49 | 54.45517 | 8.92016 | 34092 ft | 383 kts | 317° |
| 2026-04-25 18:50 | 54.49269 | 8.85492 | 34092 ft | 383 kts | 317° |
| 2026-04-25 18:50 | 54.53018 | 8.78957 | 34095 ft | 384 kts | 317° |
| 2026-04-25 18:51 | 54.56133 | 8.73497 | 34098 ft | 384 kts | 317° |
| 2026-04-25 18:51 | 54.60508 | 8.65805 | 34101 ft | 385 kts | 317° |
| 2026-04-25 18:52 | 54.64258 | 8.59202 | 34099 ft | 385 kts | 317° |
| 2026-04-25 18:52 | 54.67987 | 8.52624 | 34106 ft | 386 kts | 317° |
| 2026-04-25 18:53 | 54.71738 | 8.45973 | 34102 ft | 386 kts | 317° |
| 2026-04-25 18:53 | 54.75457 | 8.39245 | 34102 ft | 387 kts | 315° |
| 2026-04-25 18:54 | 54.80905 | 8.28868 | 34100 ft | 388 kts | 315° |
| 2026-04-25 18:55 | 54.84534 | 8.21914 | 34098 ft | 388 kts | 315° |
| 2026-04-25 18:55 | 54.88174 | 8.14967 | 34100 ft | 389 kts | 315° |
| 2026-04-25 18:56 | 54.91793 | 8.08046 | 34103 ft | 390 kts | 315° |
| 2026-04-25 18:56 | 54.95442 | 8.01047 | 34111 ft | 390 kts | 315° |
| 2026-04-25 18:57 | 54.99092 | 7.94030 | 34117 ft | 391 kts | 315° |
| 2026-04-25 18:57 | 55.02743 | 7.86993 | 34123 ft | 391 kts | 315° |
| 2026-04-25 18:58 | 55.06392 | 7.79925 | 34134 ft | 392 kts | 315° |
| 2026-04-25 18:58 | 55.11847 | 7.69332 | 34138 ft | 393 kts | 315° |
| 2026-04-25 18:59 | 55.19161 | 7.55093 | 34137 ft | 394 kts | 315° |
| 2026-04-25 19:00 | 55.24634 | 7.44355 | 34141 ft | 394 kts | 315° |
| 2026-04-25 19:01 | 55.30104 | 7.33561 | 34143 ft | 394 kts | 314° |
| 2026-04-25 19:01 | 55.33745 | 7.26350 | 34144 ft | 395 kts | 314° |
| 2026-04-25 19:02 | 55.39177 | 7.15546 | 34141 ft | 395 kts | 314° |
| 2026-04-25 19:03 | 55.43432 | 7.07066 | 34144 ft | 396 kts | 314° |
| 2026-04-25 19:03 | 55.48286 | 6.97363 | 34146 ft | 396 kts | 314° |
| 2026-04-25 19:04 | 55.53757 | 6.86383 | 34148 ft | 397 kts | 314° |
| 2026-04-25 19:05 | 55.61041 | 6.71653 | 34154 ft | 398 kts | 314° |
| 2026-04-25 19:06 | 55.64661 | 6.64301 | 34162 ft | 399 kts | 314° |
| 2026-04-25 19:06 | 55.70143 | 6.53147 | 34167 ft | 400 kts | 314° |
| 2026-04-25 19:07 | 55.75605 | 6.41949 | 34167 ft | 400 kts | 314° |
| 2026-04-25 19:08 | 55.81067 | 6.30721 | 34170 ft | 401 kts | 314° |
| 2026-04-25 19:09 | 55.87127 | 6.18200 | 34169 ft | 401 kts | 313° |
| 2026-04-25 19:10 | 55.93781 | 6.04342 | 34178 ft | 402 kts | 313° |
| 2026-04-25 19:10 | 55.97413 | 5.96761 | 34184 ft | 402 kts | 313° |
| 2026-04-25 19:11 | 56.01050 | 5.89152 | 34185 ft | 403 kts | 313° |
| 2026-04-25 19:11 | 56.04690 | 5.81513 | 34179 ft | 403 kts | 313° |
| 2026-04-25 19:12 | 56.08296 | 5.73898 | 34187 ft | 403 kts | 313° |
| 2026-04-25 19:12 | 56.11923 | 5.66226 | 34186 ft | 404 kts | 313° |
| 2026-04-25 19:13 | 56.15557 | 5.58546 | 34190 ft | 404 kts | 313° |
| 2026-04-25 19:13 | 56.18574 | 5.52119 | 34195 ft | 405 kts | 313° |
| 2026-04-25 19:14 | 56.22201 | 5.44372 | 34194 ft | 405 kts | 313° |
| 2026-04-25 19:14 | 56.25833 | 5.36590 | 34196 ft | 405 kts | 313° |
| 2026-04-25 19:15 | 56.29435 | 5.28857 | 34209 ft | 406 kts | 313° |
| 2026-04-25 19:15 | 56.33057 | 5.21039 | 34205 ft | 406 kts | 312° |
| 2026-04-25 19:16 | 56.36685 | 5.13202 | 34221 ft | 406 kts | 312° |
| 2026-04-25 19:16 | 56.40307 | 5.05351 | 34219 ft | 407 kts | 312° |
| 2026-04-25 19:17 | 56.43907 | 4.97529 | 34219 ft | 407 kts | 312° |
| 2026-04-25 19:17 | 56.47527 | 4.89626 | 34222 ft | 408 kts | 312° |
| 2026-04-25 19:18 | 56.51149 | 4.81687 | 34224 ft | 408 kts | 312° |
| 2026-04-25 19:18 | 56.54768 | 4.73736 | 34225 ft | 409 kts | 312° |
| 2026-04-25 19:19 | 56.58394 | 4.65760 | 34225 ft | 410 kts | 312° |
| 2026-04-25 19:19 | 56.62015 | 4.57752 | 34231 ft | 410 kts | 311° |
| 2026-04-25 19:20 | 56.65608 | 4.49766 | 34235 ft | 411 kts | 311° |
| 2026-04-25 19:20 | 56.69230 | 4.41700 | 34238 ft | 411 kts | 311° |
| 2026-04-25 19:21 | 56.72853 | 4.33601 | 34240 ft | 412 kts | 311° |
| 2026-04-25 19:21 | 56.78247 | 4.21476 | 34240 ft | 412 kts | 311° |
| 2026-04-25 19:22 | 56.81860 | 4.13337 | 34241 ft | 413 kts | 311° |
| 2026-04-25 19:23 | 56.87275 | 4.01093 | 34243 ft | 413 kts | 311° |
| 2026-04-25 19:23 | 56.92174 | 3.88062 | 34240 ft | 416 kts | 304° |
| 2026-04-25 19:24 | 56.95205 | 3.79026 | 34236 ft | 417 kts | 304° |
| 2026-04-25 19:25 | 57.01261 | 3.60853 | 34240 ft | 418 kts | 304° |
| 2026-04-25 19:25 | 57.04318 | 3.51845 | 34247 ft | 418 kts | 306° |
| 2026-04-25 19:26 | 57.07643 | 3.43082 | 34246 ft | 418 kts | 308° |
| 2026-04-25 19:26 | 57.11050 | 3.34407 | 34249 ft | 418 kts | 308° |
| 2026-04-25 19:27 | 57.13855 | 3.27154 | 34253 ft | 419 kts | 307° |
| 2026-04-25 19:27 | 57.17756 | 3.16860 | 34252 ft | 419 kts | 307° |
| 2026-04-25 19:28 | 57.21062 | 3.08055 | 34250 ft | 420 kts | 307° |
| 2026-04-25 19:28 | 57.24395 | 2.99200 | 34247 ft | 420 kts | 306° |
| 2026-04-25 19:29 | 57.27725 | 2.90303 | 34242 ft | 421 kts | 306° |
| 2026-04-25 19:29 | 57.31052 | 2.81389 | 34233 ft | 421 kts | 306° |
| 2026-04-25 19:30 | 57.34384 | 2.72446 | 34227 ft | 422 kts | 306° |
| 2026-04-25 19:30 | 57.37718 | 2.63472 | 34232 ft | 422 kts | 306° |
| 2026-04-25 19:31 | 57.41015 | 2.54535 | 34240 ft | 423 kts | 306° |
| 2026-04-25 19:31 | 57.44334 | 2.45500 | 34245 ft | 423 kts | 305° |
| 2026-04-25 19:32 | 57.47653 | 2.36429 | 34249 ft | 424 kts | 306° |
| 2026-04-25 19:32 | 57.50410 | 2.28892 | 34256 ft | 424 kts | 305° |
| 2026-04-25 19:33 | 57.54285 | 2.18262 | 34259 ft | 425 kts | 305° |
| 2026-04-25 19:33 | 57.57592 | 2.09115 | 34267 ft | 426 kts | 305° |
| 2026-04-25 19:34 | 57.60903 | 1.99949 | 34277 ft | 426 kts | 304° |
| 2026-04-25 19:34 | 57.64208 | 1.90758 | 34281 ft | 427 kts | 304° |
| 2026-04-25 19:35 | 57.67515 | 1.81540 | 34282 ft | 427 kts | 304° |
| 2026-04-25 19:35 | 57.70791 | 1.72344 | 34290 ft | 428 kts | 304° |
| 2026-04-25 19:36 | 57.74079 | 1.63067 | 34289 ft | 428 kts | 304° |
| 2026-04-25 19:36 | 57.77363 | 1.53780 | 34289 ft | 428 kts | 304° |
| 2026-04-25 19:37 | 57.80645 | 1.44478 | 34287 ft | 428 kts | 304° |
| 2026-04-25 19:37 | 57.83931 | 1.35133 | 34287 ft | 429 kts | 303° |
| 2026-04-25 19:38 | 57.87209 | 1.25764 | 34292 ft | 429 kts | 303° |
| 2026-04-25 19:38 | 57.90481 | 1.16375 | 34286 ft | 429 kts | 303° |
| 2026-04-25 19:39 | 57.93752 | 1.06962 | 34287 ft | 430 kts | 303° |
| 2026-04-25 19:39 | 57.97026 | 0.97507 | 34294 ft | 431 kts | 303° |
| 2026-04-25 19:40 | 58.00269 | 0.88100 | 34290 ft | 431 kts | 303° |
| 2026-04-25 19:40 | 58.03522 | 0.78588 | 34290 ft | 432 kts | 303° |
| 2026-04-25 19:41 | 58.06782 | 0.69053 | 34293 ft | 432 kts | 302° |
| 2026-04-25 19:41 | 58.08959 | 0.62657 | 34295 ft | 433 kts | 302° |
| 2026-04-25 19:42 | 58.13294 | 0.49889 | 34296 ft | 433 kts | 302° |
| 2026-04-25 19:42 | 58.16529 | 0.40321 | 34295 ft | 434 kts | 302° |
| 2026-04-25 19:43 | 58.19768 | 0.30668 | 34295 ft | 434 kts | 302° |
| 2026-04-25 19:43 | 58.23004 | 0.20985 | 34306 ft | 435 kts | 302° |
| 2026-04-25 19:44 | 58.26247 | 0.11267 | 34302 ft | 436 kts | 302° |
| 2026-04-25 19:44 | 58.29490 | 0.01524 | 34304 ft | 436 kts | 302° |
| 2026-04-25 19:45 | 58.32719 | -0.08257 | 34304 ft | 437 kts | 301° |
| 2026-04-25 19:45 | 58.35950 | -0.18054 | 34310 ft | 437 kts | 301° |
| 2026-04-25 19:46 | 58.39154 | -0.27815 | 34312 ft | 438 kts | 301° |
| 2026-04-25 19:46 | 58.42396 | -0.37733 | 34312 ft | 438 kts | 301° |
| 2026-04-25 19:47 | 58.45592 | -0.47570 | 34312 ft | 438 kts | 301° |
| 2026-04-25 19:47 | 58.48799 | -0.57497 | 34312 ft | 439 kts | 301° |
| 2026-04-25 19:48 | 58.52009 | -0.67443 | 34315 ft | 440 kts | 301° |
| 2026-04-25 19:48 | 58.55218 | -0.77434 | 34316 ft | 440 kts | 301° |
| 2026-04-25 19:49 | 58.57365 | -0.84120 | 34316 ft | 440 kts | 300° |
| 2026-04-25 19:49 | 58.61622 | -0.97489 | 34320 ft | 441 kts | 300° |
| 2026-04-25 19:50 | 58.66404 | -1.12609 | 34326 ft | 442 kts | 300° |
| 2026-04-25 19:51 | 58.69582 | -1.22660 | 34323 ft | 443 kts | 300° |
| 2026-04-25 19:51 | 58.72769 | -1.32816 | 34323 ft | 443 kts | 300° |
| 2026-04-25 19:52 | 58.75946 | -1.43001 | 34325 ft | 444 kts | 299° |
| 2026-04-25 19:52 | 58.79118 | -1.53226 | 34329 ft | 444 kts | 299° |
| 2026-04-25 19:53 | 58.82287 | -1.63466 | 34327 ft | 445 kts | 299° |
| 2026-04-25 19:53 | 58.85458 | -1.73734 | 34333 ft | 445 kts | 299° |
| 2026-04-25 19:54 | 58.88599 | -1.83961 | 34330 ft | 445 kts | 299° |
| 2026-04-25 19:54 | 58.91757 | -1.94282 | 34324 ft | 446 kts | 298° |
| 2026-04-25 19:55 | 58.94902 | -2.04629 | 34326 ft | 446 kts | 298° |
| 2026-04-25 19:55 | 58.98043 | -2.15007 | 34325 ft | 447 kts | 298° |
| 2026-04-25 19:56 | 59.01183 | -2.25419 | 34320 ft | 447 kts | 298° |
| 2026-04-25 19:56 | 59.04319 | -2.35862 | 34322 ft | 448 kts | 298° |
| 2026-04-25 19:57 | 59.07444 | -2.46344 | 34319 ft | 448 kts | 298° |
| 2026-04-25 19:57 | 59.10573 | -2.56849 | 34322 ft | 449 kts | 298° |
| 2026-04-25 19:58 | 59.13680 | -2.67330 | 34321 ft | 449 kts | 297° |
| 2026-04-25 19:58 | 59.16801 | -2.77911 | 34319 ft | 450 kts | 297° |
| 2026-04-25 19:59 | 59.19908 | -2.88513 | 34321 ft | 450 kts | 297° |
| 2026-04-25 19:59 | 59.23011 | -2.99148 | 34318 ft | 451 kts | 297° |
| 2026-04-25 20:00 | 59.26112 | -3.09802 | 34312 ft | 451 kts | 297° |
| 2026-04-25 20:00 | 59.29200 | -3.20483 | 34308 ft | 451 kts | 297° |
| 2026-04-25 20:01 | 59.33827 | -3.36568 | 34310 ft | 452 kts | 296° |
| 2026-04-25 20:01 | 59.36885 | -3.47251 | 34318 ft | 452 kts | 296° |
| 2026-04-25 20:02 | 59.39952 | -3.58030 | 34313 ft | 453 kts | 296° |
| 2026-04-25 20:02 | 59.43015 | -3.68831 | 34312 ft | 453 kts | 296° |
| 2026-04-25 20:03 | 59.45561 | -3.77841 | 34307 ft | 453 kts | 296° |
| 2026-04-25 20:03 | 59.48614 | -3.88688 | 34306 ft | 453 kts | 296° |
| 2026-04-25 20:04 | 59.51656 | -3.99571 | 34306 ft | 454 kts | 296° |
| 2026-04-25 20:04 | 59.54696 | -4.10490 | 34306 ft | 455 kts | 296° |
| 2026-04-25 20:05 | 59.57728 | -4.21448 | 34307 ft | 455 kts | 295° |
| 2026-04-25 20:05 | 59.60754 | -4.32438 | 34300 ft | 455 kts | 295° |
| 2026-04-25 20:06 | 59.63769 | -4.43454 | 34305 ft | 456 kts | 295° |
| 2026-04-25 20:06 | 59.66785 | -4.54502 | 34303 ft | 457 kts | 295° |
| 2026-04-25 20:07 | 59.69796 | -4.65588 | 34309 ft | 457 kts | 295° |
| 2026-04-25 20:07 | 59.72803 | -4.76694 | 34308 ft | 458 kts | 295° |
| 2026-04-25 20:08 | 59.75800 | -4.87834 | 34308 ft | 458 kts | 295° |
| 2026-04-25 20:08 | 59.78786 | -4.99016 | 34313 ft | 459 kts | 295° |
| 2026-04-25 20:09 | 59.81765 | -5.10232 | 34311 ft | 459 kts | 294° |
| 2026-04-25 20:09 | 59.84732 | -5.21392 | 34315 ft | 459 kts | 294° |
| 2026-04-25 20:10 | 59.87703 | -5.32647 | 34311 ft | 459 kts | 294° |
| 2026-04-25 20:10 | 59.90669 | -5.43925 | 34306 ft | 460 kts | 294° |
| 2026-04-25 20:11 | 59.93624 | -5.55252 | 34302 ft | 460 kts | 294° |
| 2026-04-25 20:11 | 59.96568 | -5.66610 | 34293 ft | 461 kts | 294° |
| 2026-04-25 20:12 | 59.99505 | -5.78008 | 34300 ft | 462 kts | 294° |
| 2026-04-25 20:12 | 60.01944 | -5.87501 | 34300 ft | 462 kts | 294° |
| 2026-04-25 20:13 | 60.05354 | -6.00805 | 34308 ft | 462 kts | 294° |
| 2026-04-25 20:13 | 60.08269 | -6.12264 | 34301 ft | 462 kts | 293° |
| 2026-04-25 20:14 | 60.11185 | -6.23775 | 34303 ft | 463 kts | 293° |
| 2026-04-25 20:14 | 60.14092 | -6.35300 | 34295 ft | 463 kts | 293° |
| 2026-04-25 20:15 | 60.16983 | -6.46872 | 34296 ft | 463 kts | 293° |
| 2026-04-25 20:15 | 60.19851 | -6.58401 | 34293 ft | 464 kts | 293° |
| 2026-04-25 20:16 | 60.22748 | -6.70093 | 34297 ft | 464 kts | 293° |
| 2026-04-25 20:16 | 60.25604 | -6.81653 | 34300 ft | 464 kts | 292° |
| 2026-04-25 20:17 | 60.28482 | -6.93410 | 34294 ft | 465 kts | 292° |
| 2026-04-25 20:17 | 60.31315 | -7.05039 | 34301 ft | 465 kts | 292° |
| 2026-04-25 20:18 | 60.34163 | -7.16771 | 34303 ft | 465 kts | 292° |
| 2026-04-25 20:18 | 60.37005 | -7.28539 | 34301 ft | 466 kts | 292° |
| 2026-04-25 20:19 | 60.39832 | -7.40332 | 34302 ft | 466 kts | 292° |
| 2026-04-25 20:19 | 60.42651 | -7.52148 | 34300 ft | 466 kts | 292° |
| 2026-04-25 20:20 | 60.45462 | -7.63995 | 34303 ft | 467 kts | 292° |
| 2026-04-25 20:20 | 60.48252 | -7.75812 | 34307 ft | 467 kts | 292° |
| 2026-04-25 20:21 | 60.51051 | -7.87730 | 34122 ft | 467 kts | 291° |
| 2026-04-25 20:21 | 60.52444 | -7.93686 | 33905 ft | 467 kts | 291° |
| 2026-04-25 20:21 | 60.53838 | -7.99655 | 33689 ft | 468 kts | 291° |
| 2026-04-25 20:22 | 60.55230 | -8.05631 | 33472 ft | 468 kts | 291° |
| 2026-04-25 20:22 | 60.56152 | -8.09596 | 33342 ft | 468 kts | 291° |
| 2026-04-25 20:22 | 60.58010 | -8.17612 | 33046 ft | 469 kts | 291° |
| 2026-04-25 20:22 | 60.59393 | -8.23613 | 32840 ft | 469 kts | 291° |
| 2026-04-25 20:23 | 60.60773 | -8.29635 | 32634 ft | 469 kts | 291° |
| 2026-04-25 20:23 | 60.62151 | -8.35664 | 32424 ft | 470 kts | 291° |
| 2026-04-25 20:23 | 60.63531 | -8.41697 | 32215 ft | 470 kts | 291° |
| 2026-04-25 20:23 | 60.64915 | -8.47746 | 32009 ft | 470 kts | 291° |
| 2026-04-25 20:24 | 60.66293 | -8.53791 | 31808 ft | 471 kts | 291° |
| 2026-04-25 20:24 | 60.67673 | -8.59870 | 31610 ft | 471 kts | 291° |
| 2026-04-25 20:24 | 60.69045 | -8.65942 | 31400 ft | 472 kts | 291° |
| 2026-04-25 20:24 | 60.70396 | -8.71959 | 31210 ft | 472 kts | 291° |
| 2026-04-25 20:25 | 60.71763 | -8.78053 | 31015 ft | 472 kts | 291° |
| 2026-04-25 20:25 | 60.73157 | -8.84141 | 30820 ft | 473 kts | 292° |
| 2026-04-25 20:25 | 60.74584 | -8.90201 | 30621 ft | 474 kts | 293° |
| 2026-04-25 20:25 | 60.76033 | -8.96257 | 30426 ft | 474 kts | 293° |
| 2026-04-25 20:26 | 60.77491 | -9.02313 | 30213 ft | 475 kts | 293° |
| 2026-04-25 20:26 | 60.78949 | -9.08390 | 29972 ft | 475 kts | 293° |
| 2026-04-25 20:26 | 60.80393 | -9.14471 | 29756 ft | 475 kts | 292° |
| 2026-04-25 20:26 | 60.81824 | -9.20569 | 29531 ft | 475 kts | 292° |
| 2026-04-25 20:27 | 60.83247 | -9.26692 | 29305 ft | 476 kts | 292° |
| 2026-04-25 20:27 | 60.84663 | -9.32821 | 29079 ft | 476 kts | 292° |
| 2026-04-25 20:27 | 60.86083 | -9.38969 | 28862 ft | 476 kts | 292° |
| 2026-04-25 20:27 | 60.87499 | -9.45114 | 28638 ft | 477 kts | 292° |
| 2026-04-25 20:28 | 60.88918 | -9.51265 | 28427 ft | 477 kts | 292° |
| 2026-04-25 20:28 | 60.90339 | -9.57426 | 28232 ft | 477 kts | 292° |
| 2026-04-25 20:28 | 60.93171 | -9.69775 | 28281 ft | 478 kts | 292° |
| 2026-04-25 20:29 | 60.95988 | -9.82177 | 28283 ft | 478 kts | 292° |
| 2026-04-25 20:29 | 60.98791 | -9.94611 | 28279 ft | 479 kts | 292° |
| 2026-04-25 20:30 | 61.01680 | -10.06881 | 28283 ft | 480 kts | 295° |
| 2026-04-25 20:30 | 61.04983 | -10.18858 | 28277 ft | 480 kts | 298° |
| 2026-04-25 20:31 | 61.08381 | -10.30735 | 28271 ft | 480 kts | 297° |
| 2026-04-25 20:31 | 61.11682 | -10.42710 | 28262 ft | 479 kts | 296° |
| 2026-04-25 20:32 | 61.14902 | -10.54783 | 28260 ft | 479 kts | 296° |
| 2026-04-25 20:32 | 61.18106 | -10.66896 | 28257 ft | 479 kts | 296° |
| 2026-04-25 20:33 | 61.21311 | -10.78999 | 28258 ft | 479 kts | 296° |
| 2026-04-25 20:33 | 61.23982 | -10.89082 | 28255 ft | 479 kts | 296° |
| 2026-04-25 20:34 | 61.27722 | -11.03273 | 28253 ft | 478 kts | 296° |
| 2026-04-25 20:34 | 61.30908 | -11.15429 | 28257 ft | 478 kts | 296° |
| 2026-04-25 20:35 | 61.34051 | -11.27519 | 28251 ft | 478 kts | 295° |
| 2026-04-25 20:35 | 61.37205 | -11.39736 | 28246 ft | 477 kts | 295° |
| 2026-04-25 20:36 | 61.40345 | -11.51971 | 28245 ft | 477 kts | 295° |
| 2026-04-25 20:36 | 61.43449 | -11.64105 | 28242 ft | 477 kts | 295° |
| 2026-04-25 20:37 | 61.46588 | -11.76425 | 28240 ft | 477 kts | 295° |
| 2026-04-25 20:37 | 61.49675 | -11.88614 | 28234 ft | 477 kts | 295° |
| 2026-04-25 20:38 | 61.52772 | -12.00883 | 28236 ft | 476 kts | 295° |
| 2026-04-25 20:38 | 61.55845 | -12.13193 | 28235 ft | 476 kts | 295° |
| 2026-04-25 20:39 | 61.58905 | -12.25507 | 28235 ft | 476 kts | 295° |
| 2026-04-25 20:39 | 61.60949 | -12.33750 | 28234 ft | 475 kts | 295° |
| 2026-04-25 20:40 | 61.64999 | -12.50173 | 28227 ft | 475 kts | 295° |
| 2026-04-25 20:40 | 61.68023 | -12.62536 | 28224 ft | 474 kts | 295° |
| 2026-04-25 20:41 | 61.71013 | -12.74836 | 28223 ft | 474 kts | 295° |
| 2026-04-25 20:41 | 61.74011 | -12.87222 | 28224 ft | 474 kts | 294° |
| 2026-04-25 20:42 | 61.76990 | -12.99626 | 28215 ft | 473 kts | 294° |
| 2026-04-25 20:42 | 61.79957 | -13.12033 | 28213 ft | 473 kts | 294° |
| 2026-04-25 20:43 | 61.82905 | -13.24452 | 28216 ft | 472 kts | 294° |
| 2026-04-25 20:43 | 61.85844 | -13.36881 | 28214 ft | 472 kts | 294° |
| 2026-04-25 20:44 | 61.88782 | -13.49323 | 28215 ft | 471 kts | 294° |
| 2026-04-25 20:44 | 61.91692 | -13.61770 | 28216 ft | 471 kts | 294° |
| 2026-04-25 20:45 | 61.94567 | -13.74156 | 28215 ft | 470 kts | 294° |
| 2026-04-25 20:45 | 61.97452 | -13.86618 | 28201 ft | 470 kts | 294° |
| 2026-04-25 20:46 | 62.00318 | -13.99091 | 28205 ft | 469 kts | 294° |
| 2026-04-25 20:46 | 62.03172 | -14.11593 | 28202 ft | 469 kts | 294° |
| 2026-04-25 20:47 | 62.06012 | -14.24106 | 28203 ft | 469 kts | 294° |
| 2026-04-25 20:47 | 62.08838 | -14.36630 | 28209 ft | 468 kts | 294° |
| 2026-04-25 20:48 | 62.11645 | -14.49157 | 28204 ft | 468 kts | 294° |
| 2026-04-25 20:48 | 62.14438 | -14.61706 | 28210 ft | 467 kts | 294° |
| 2026-04-25 20:49 | 62.17210 | -14.74171 | 28206 ft | 466 kts | 294° |
| 2026-04-25 20:49 | 62.19990 | -14.86722 | 28202 ft | 466 kts | 294° |
| 2026-04-25 20:50 | 62.22746 | -14.99313 | 28196 ft | 466 kts | 293° |
| 2026-04-25 20:50 | 62.25486 | -15.11918 | 28190 ft | 466 kts | 293° |
| 2026-04-25 20:51 | 62.27759 | -15.22415 | 28190 ft | 466 kts | 293° |
| 2026-04-25 20:51 | 62.30487 | -15.35069 | 28191 ft | 466 kts | 293° |
| 2026-04-25 20:52 | 62.32748 | -15.45601 | 28188 ft | 466 kts | 293° |
| 2026-04-25 20:52 | 62.35911 | -15.60432 | 28194 ft | 466 kts | 292° |
| 2026-04-25 20:53 | 62.38595 | -15.73135 | 28193 ft | 466 kts | 292° |
| 2026-04-25 20:53 | 62.41249 | -15.85782 | 28187 ft | 466 kts | 292° |
| 2026-04-25 20:54 | 62.43914 | -15.98531 | 28186 ft | 466 kts | 292° |
| 2026-04-25 20:54 | 62.46570 | -16.11306 | 28181 ft | 466 kts | 292° |
| 2026-04-25 20:55 | 62.49215 | -16.24095 | 28182 ft | 466 kts | 292° |
| 2026-04-25 20:55 | 62.51841 | -16.36911 | 28180 ft | 466 kts | 292° |
| 2026-04-25 20:56 | 62.54459 | -16.49776 | 28176 ft | 466 kts | 292° |
| 2026-04-25 20:56 | 62.57067 | -16.62654 | 28178 ft | 466 kts | 292° |
| 2026-04-25 20:57 | 62.59667 | -16.75543 | 28181 ft | 466 kts | 292° |
| 2026-04-25 20:57 | 62.62253 | -16.88455 | 28177 ft | 466 kts | 292° |
| 2026-04-25 20:58 | 62.64830 | -17.01422 | 28177 ft | 466 kts | 292° |
| 2026-04-25 20:58 | 62.67389 | -17.14374 | 28175 ft | 466 kts | 292° |
| 2026-04-25 20:59 | 62.69927 | -17.27293 | 28171 ft | 467 kts | 292° |
| 2026-04-25 20:59 | 62.72470 | -17.40316 | 28170 ft | 466 kts | 291° |
| 2026-04-25 21:00 | 62.74573 | -17.51150 | 28170 ft | 467 kts | 291° |
| 2026-04-25 21:01 | 62.78765 | -17.72966 | 28161 ft | 467 kts | 291° |
| 2026-04-25 21:01 | 62.81260 | -17.86059 | 28167 ft | 467 kts | 291° |
| 2026-04-25 21:02 | 62.83735 | -17.99117 | 28178 ft | 467 kts | 291° |
| 2026-04-25 21:02 | 62.86203 | -18.12265 | 28166 ft | 467 kts | 291° |
| 2026-04-25 21:03 | 62.88671 | -18.25428 | 28168 ft | 467 kts | 291° |
| 2026-04-25 21:03 | 62.91126 | -18.38601 | 28176 ft | 466 kts | 291° |
| 2026-04-25 21:04 | 62.93559 | -18.51814 | 28169 ft | 466 kts | 291° |
| 2026-04-25 21:04 | 62.95952 | -18.64940 | 28165 ft | 465 kts | 290° |
| 2026-04-25 21:05 | 62.98604 | -18.77920 | 28154 ft | 467 kts | 301° |
| 2026-04-25 21:05 | 63.02380 | -18.89559 | 28156 ft | 467 kts | 305° |
| 2026-04-25 21:06 | 63.06177 | -19.01157 | 28154 ft | 467 kts | 304° |
| 2026-04-25 21:06 | 63.09968 | -19.12785 | 28155 ft | 467 kts | 304° |
| 2026-04-25 21:07 | 63.13751 | -19.24449 | 28160 ft | 467 kts | 304° |
| 2026-04-25 21:07 | 63.17500 | -19.36054 | 28164 ft | 466 kts | 304° |
| 2026-04-25 21:08 | 63.21252 | -19.47770 | 28166 ft | 466 kts | 303° |
| 2026-04-25 21:08 | 63.24999 | -19.59489 | 28164 ft | 465 kts | 304° |
| 2026-04-25 21:09 | 63.30591 | -19.77107 | 28155 ft | 465 kts | 303° |
| 2026-04-25 21:09 | 63.34302 | -19.88889 | 28154 ft | 464 kts | 303° |
| 2026-04-25 21:10 | 63.38003 | -20.00703 | 27663 ft | 466 kts | 303° |
| 2026-04-25 21:10 | 63.39858 | -20.06644 | 26944 ft | 464 kts | 303° |
| 2026-04-25 21:10 | 63.41705 | -20.12575 | 26432 ft | 465 kts | 303° |
| 2026-04-25 21:11 | 63.43525 | -20.18437 | 25905 ft | 466 kts | 303° |
| 2026-04-25 21:11 | 63.45398 | -20.24477 | 25378 ft | 467 kts | 303° |
| 2026-04-25 21:11 | 63.47251 | -20.30469 | 24860 ft | 468 kts | 303° |
| 2026-04-25 21:11 | 63.49080 | -20.36399 | 24354 ft | 469 kts | 302° |
| 2026-04-25 21:12 | 63.50957 | -20.42505 | 23809 ft | 470 kts | 303° |
| 2026-04-25 21:12 | 63.52786 | -20.48474 | 23224 ft | 472 kts | 302° |
| 2026-04-25 21:12 | 63.54644 | -20.54553 | 22696 ft | 473 kts | 303° |
| 2026-04-25 21:12 | 63.55850 | -20.58730 | 22317 ft | 471 kts | 297° |
| 2026-04-25 21:13 | 63.57801 | -20.67334 | 21346 ft | 465 kts | 295° |
| 2026-04-25 21:13 | 63.59239 | -20.73811 | 20530 ft | 461 kts | 295° |
| 2026-04-25 21:13 | 63.60659 | -20.80222 | 19793 ft | 455 kts | 295° |
| 2026-04-25 21:13 | 63.62045 | -20.86499 | 19564 ft | 439 kts | 295° |
| 2026-04-25 21:14 | 63.63370 | -20.92512 | 19437 ft | 421 kts | 294° |
| 2026-04-25 21:14 | 63.64636 | -20.98294 | 19326 ft | 404 kts | 294° |
| 2026-04-25 21:14 | 63.65850 | -21.03855 | 19193 ft | 388 kts | 294° |
| 2026-04-25 21:14 | 63.67189 | -21.09007 | 19016 ft | 377 kts | 304° |
| 2026-04-25 21:15 | 63.68804 | -21.13620 | 18626 ft | 372 kts | 306° |
| 2026-04-25 21:15 | 63.70411 | -21.18151 | 18152 ft | 368 kts | 307° |
| 2026-04-25 21:15 | 63.72009 | -21.22649 | 17642 ft | 366 kts | 306° |
| 2026-04-25 21:15 | 63.73594 | -21.27114 | 17138 ft | 363 kts | 306° |
| 2026-04-25 21:16 | 63.75146 | -21.31499 | 16645 ft | 360 kts | 306° |
| 2026-04-25 21:16 | 63.76704 | -21.35910 | 16168 ft | 358 kts | 306° |
| 2026-04-25 21:16 | 63.78250 | -21.40299 | 15699 ft | 356 kts | 306° |
| 2026-04-25 21:16 | 63.79785 | -21.44671 | 15234 ft | 353 kts | 306° |
| 2026-04-25 21:17 | 63.81308 | -21.49021 | 14781 ft | 351 kts | 306° |
| 2026-04-25 21:17 | 63.82817 | -21.53349 | 14338 ft | 349 kts | 306° |
| 2026-04-25 21:17 | 63.84312 | -21.57650 | 13871 ft | 347 kts | 306° |
| 2026-04-25 21:17 | 63.85805 | -21.61937 | 13388 ft | 345 kts | 305° |
| 2026-04-25 21:18 | 63.87291 | -21.66188 | 12903 ft | 343 kts | 306° |
| 2026-04-25 21:18 | 63.88769 | -21.70418 | 12429 ft | 341 kts | 306° |
| 2026-04-25 21:18 | 63.90237 | -21.74627 | 11954 ft | 339 kts | 305° |
| 2026-04-25 21:18 | 63.91698 | -21.78825 | 11489 ft | 338 kts | 306° |
| 2026-04-25 21:19 | 63.93151 | -21.83014 | 11021 ft | 336 kts | 305° |
| 2026-04-25 21:19 | 63.94581 | -21.87169 | 10723 ft | 330 kts | 305° |
| 2026-04-25 21:19 | 63.95966 | -21.91208 | 10597 ft | 318 kts | 304° |
| 2026-04-25 21:19 | 63.97280 | -21.95062 | 10471 ft | 306 kts | 304° |
| 2026-04-25 21:20 | 63.98562 | -21.98832 | 10316 ft | 297 kts | 304° |
| 2026-04-25 21:20 | 63.99410 | -22.01329 | 10115 ft | 294 kts | 304° |
| 2026-04-25 21:20 | 64.01058 | -22.06191 | 9612 ft | 291 kts | 304° |
| 2026-04-25 21:20 | 64.02291 | -22.09834 | 9211 ft | 290 kts | 304° |
| 2026-04-25 21:21 | 64.03526 | -22.13467 | 8809 ft | 288 kts | 305° |
| 2026-04-25 21:21 | 64.04750 | -22.17078 | 8416 ft | 287 kts | 304° |
| 2026-04-25 21:21 | 64.05966 | -22.20676 | 8022 ft | 286 kts | 304° |
| 2026-04-25 21:21 | 64.07179 | -22.24266 | 7638 ft | 285 kts | 304° |
| 2026-04-25 21:22 | 64.08387 | -22.27838 | 7246 ft | 284 kts | 305° |
| 2026-04-25 21:22 | 64.09690 | -22.31212 | 6873 ft | 285 kts | 316° |
| 2026-04-25 21:22 | 64.11265 | -22.33996 | 6483 ft | 285 kts | 321° |
| 2026-04-25 21:22 | 64.12839 | -22.36688 | 6234 ft | 277 kts | 321° |
| 2026-04-25 21:23 | 64.14303 | -22.39321 | 6110 ft | 264 kts | 311° |
| 2026-04-25 21:23 | 64.15279 | -22.42722 | 5888 ft | 251 kts | 287° |
| 2026-04-25 21:23 | 64.15669 | -22.46666 | 5371 ft | 260 kts | 269° |
| 2026-04-25 21:23 | 64.15501 | -22.50789 | 4854 ft | 260 kts | 251° |
| 2026-04-25 21:24 | 64.14776 | -22.54643 | 4030 ft | 269 kts | 232° |
| 2026-04-25 21:24 | 64.13503 | -22.57819 | 3242 ft | 275 kts | 214° |
| 2026-04-25 21:24 | 64.11843 | -22.59823 | 2748 ft | 263 kts | 195° |
| 2026-04-25 21:24 | 64.10110 | -22.60530 | 2409 ft | 245 kts | 179° |
| 2026-04-25 21:25 | 64.09004 | -22.60536 | 2188 ft | 233 kts | 178° |
| 2026-04-25 21:25 | 64.07007 | -22.60540 | 1799 ft | 198 kts | 178° |
| 2026-04-25 21:25 | 64.05715 | -22.60542 | 1525 ft | 175 kts | 178° |
| 2026-04-25 21:25 | 64.04579 | -22.60544 | 1308 ft | 154 kts | 177° |
| 2026-04-25 21:26 | 64.03559 | -22.60545 | 1088 ft | 141 kts | 176° |
| 2026-04-25 21:26 | 64.02580 | -22.60539 | 861 ft | 140 kts | 176° |
| 2026-04-25 21:26 | 64.01629 | -22.60561 | 697 ft | 138 kts | 176° |
| 2026-04-25 21:26 | 64.00669 | -22.60603 | 509 ft | 137 kts | 175° |
| 2026-04-25 21:27 | 63.99720 | -22.60558 | 332 ft | 137 kts | 175° |
| 2026-04-25 21:27 | 63.98775 | -22.60566 | 184 ft | 130 kts | 176° |
| 2026-04-25 21:27 | 63.97984 | -22.60500 | 171 ft | 92 kts | 179° |
| 2026-04-25 21:27 | 63.97543 | -22.60494 | 173 ft | 30 kts | 181° |
| 2026-04-25 21:28 | 63.97441 | -22.60792 | 168 ft | 19 kts | 281° |
| 2026-04-25 21:28 | 63.97510 | -22.60943 | 166 ft | 14 kts | 356° |
| 2026-04-25 21:28 | 63.97604 | -22.60939 | 168 ft | 14 kts | 359° |
| 2026-04-25 21:28 | 63.97711 | -22.60939 | 169 ft | 17 kts | 359° |
| 2026-04-25 21:29 | 63.97840 | -22.60939 | 170 ft | 20 kts | 0° |
| 2026-04-25 21:29 | 63.97980 | -22.60941 | 169 ft | 20 kts | 0° |
| 2026-04-25 21:29 | 63.98119 | -22.60941 | 167 ft | 20 kts | 360° |
| 2026-04-25 21:29 | 63.98258 | -22.60939 | 165 ft | 20 kts | 2° |
| 2026-04-25 21:30 | 63.98388 | -22.60936 | 166 ft | 18 kts | 358° |
| 2026-04-25 21:30 | 63.98505 | -22.60939 | 166 ft | 16 kts | 360° |
| 2026-04-25 21:30 | 63.98615 | -22.60940 | 164 ft | 16 kts | 359° |
| 2026-04-25 21:30 | 63.98687 | -22.60940 | 163 ft | 16 kts | 0° |
| 2026-04-25 21:31 | 63.98825 | -22.60939 | 163 ft | 13 kts | 0° |
| 2026-04-25 21:31 | 63.98903 | -22.60937 | 166 ft | 9 kts | 1° |
| 2026-04-25 21:31 | 63.98955 | -22.60936 | 167 ft | 6 kts | 0° |
| 2026-04-25 21:31 | 63.98994 | -22.60936 | 167 ft | 5 kts | 0° |
| 2026-04-25 21:32 | 63.99040 | -22.60936 | 166 ft | 10 kts | 360° |
| 2026-04-25 21:32 | 63.99118 | -22.60937 | 162 ft | 12 kts | 359° |
| 2026-04-25 21:32 | 63.99170 | -22.61045 | 159 ft | 10 kts | 252° |
| 2026-04-25 21:32 | 63.99170 | -22.61218 | 155 ft | 12 kts | 275° |
| 2026-04-25 21:33 | 63.99176 | -22.61428 | 150 ft | 14 kts | 272° |
| 2026-04-25 21:33 | 63.99173 | -22.61672 | 145 ft | 16 kts | 265° |
| 2026-04-25 21:33 | 63.99166 | -22.61948 | 140 ft | 18 kts | 269° |
| 2026-04-25 21:33 | 63.99169 | -22.62206 | 140 ft | 13 kts | 268° |
| 2026-04-25 21:34 | 63.99184 | -22.62308 | 140 ft | 5 kts | 336° |
| 2026-04-25 21:34 | 63.99213 | -22.62305 | 140 ft | 4 kts | 0° |
| 2026-04-25 21:34 | 63.99236 | -22.62305 | 140 ft | 3 kts | 0° |
| 2026-04-25 21:34 | 63.99254 | -22.62305 | 140 ft | 2 kts | 360° |
| 2026-04-25 21:35 | 63.99267 | -22.62305 | 140 ft | 2 kts | 359° |
| 2026-04-25 21:35 | 63.99276 | -22.62305 | 140 ft | 1 kts | 360° |
| 2026-04-25 21:35 | 63.99280 | -22.62305 | 140 ft | 0 kts | 360° |